Flight Track Log - Related Links

Times and Time Zones

All times are in EDT time to prevent confusion due to time zone crossing. See the EJA922 flight status page for this flight to view local times or setup timezone preferences in your user account.

Time Position Orientation Groundspeed Altitude Reporting Facility
EDT Latitude Longitude Course Direction KTS MPH feet Rate Location/Type
Mon 13:53:17 34.0000 -118.5167 252° West 210 242 3,200  Level Southern California TRACON
Mon 13:54:24 33.9814 -118.5869 252° West 233 268 5,800 1,907 Climbing Los Angeles Center
Mon 13:55:26 33.9483 -118.6767 246° West 276 318 7,300 1,636 Climbing Los Angeles Center
Mon 13:57:00 34.0771 -118.7990 294° West  Level Estimated
Mon 13:57:42 33.9264 -118.9167 294° West 347 399 11,200  Level Los Angeles Center
Mon 13:58:44 33.9358 -119.0403 275° West 379 436 13,300 1,920 Climbing Los Angeles Center
Mon 13:59:47 34.0075 -119.1361 312° West 385 443 15,200 1,733 Climbing Los Angeles Center
Mon 14:01:00 34.1116 -119.2245 305° West  Level Estimated
Mon 14:01:51 34.1611 -119.3294 305° West 403 464 18,700  Level Los Angeles Center
Mon 14:02:53 34.2564 -119.4519 313° West 415 478 20,400 1,452 Climbing Los Angeles Center
Mon 14:03:55 34.3397 -119.5575 314° West 428 493 21,700 1,161 Climbing Los Angeles Center
Mon 14:04:57 34.4244 -119.6658 313° West 440 506 22,800 1,113 Climbing Los Angeles Center
Mon 14:05:59 34.5131 -119.7775 314° West 455 524 24,000 1,016 Climbing Los Angeles Center
Mon 14:07:01 34.5892 -119.8628 317° Northwest 460 529 24,900 1,113 Climbing Los Angeles Center
Mon 14:08:03 34.7300 -120.0119 319° Northwest 485 558 26,300 1,210 Climbing Los Angeles Center
Mon 14:09:05 34.8275 -120.1172 318° Northwest 491 565 27,400 968 Climbing Los Angeles Center
Mon 14:10:07 34.9306 -120.2294 318° Northwest 500 575 28,300 960 Climbing Los Angeles Center
Mon 14:11:10 35.0336 -120.3442 318° Northwest 506 582 29,400 816 Climbing Los Angeles Center
Mon 14:12:12 35.1592 -120.4836 318° Northwest 516 594 30,000 242 Climbing Los Angeles Center
Mon 14:13:14 35.2686 -120.6072 317° Northwest 541 623 29,900 -48 Descending Los Angeles Center
Mon 14:14:16 35.3792 -120.7317 317° Northwest 543 625 29,900 48 Level Los Angeles Center
Mon 14:15:18 35.4897 -120.8550 318° Northwest 539 620 30,000 42 Climbing Los Angeles Center
Mon 14:16:40 35.6553 -121.0036 324° Northwest 541 623 30,000  Level Oakland Center
Mon 14:17:42 35.7783 -121.1106 325° Northwest 540 621 30,000 -49 Level Oakland Center
Mon 14:18:43 35.9014 -121.2181 325° Northwest 540 621 29,900  Descending Oakland Center
Mon 14:19:45 36.0492 -121.3469 325° Northwest 540 621 30,000 49 Climbing Oakland Center
Mon 14:20:46 36.1722 -121.4561 324° Northwest 542 624 30,000 -49 Level Oakland Center
Mon 14:21:48 36.2953 -121.5642 325° Northwest 542 624 29,900 -585 Descending Oakland Center
Mon 14:22:49 36.4186 -121.6717 325° Northwest 541 623 28,800 -1,512 Descending Oakland Center
Mon 14:23:51 36.5408 -121.7811 324° Northwest 540 621 26,800 -2,000 Descending Oakland Center
Mon 14:24:52 36.6597 -121.8897 324° Northwest 531 611 24,700 -2,500 Descending Oakland Center
Mon 14:26:15 36.8500 -122.0000 335° Northwest 500 575 20,800 -2,634 Descending Northern Cal TRACON
Mon 14:26:55 36.9178 -122.0108 353° North 492 566 19,300 -3,000 Descending Oakland Center
Mon 14:27:57 37.0675 -122.0478 349° North 448 516 15,700 -2,878 Descending Oakland Center
Mon 14:28:58 37.1539 -122.0781 344° North 364 419 13,400 -2,000 Descending Oakland Center
Mon 14:30:00 37.1992 -122.1725 301° West 323 372 11,600 -1,512 Descending Oakland Center
Mon 14:31:01 37.2392 -122.2669 298° West 309 356 10,300 -1,239 Descending Oakland Center
Mon 14:33:04 37.3406 -122.3683 322° Northwest 267 307 7,800 -1,175 Descending Oakland Center
Mon 14:34:15 37.3833 -122.2667 62° Northeast 255 293 6,500 -870 Descending Northern Cal TRACON
Mon 14:35:15 37.4167 -122.2000 58° Northeast 236 272 5,900 -1,100 Descending Northern Cal TRACON
Mon 14:36:15 37.4667 -122.1833 15° North 238 274 4,300 -1,023 Descending Northern Cal TRACON
Mon 14:38:11 37.5667 -122.2367 337° Northwest 229 264 2,900 -1,000 Descending Oakland Center
Mon 14:40:15 37.6000 -122.3500 290° West 134 154 300 -1,258 Descending Northern Cal TRACON
Mon 14:42:00 37.6167 -122.3667 322° Northwest  Level FlightAware Approximate
Mon 14:49:00 37.6191 -122.3752 322° Northwest  Level Estimated

Login

Don't have an account? Register now (free) for customized features, flight alerts, and more!